sensor_id;sensor_type;location;lat;lon;timestamp;P1;durP1;ratioP1;P2;durP2;ratioP2
32292;SDS011;43233;48.608;8.838;2022-07-29T00:01:48;6.60;;;5.90;;
32292;SDS011;43233;48.608;8.838;2022-07-29T00:04:13;9.70;;;6.60;;
32292;SDS011;43233;48.608;8.838;2022-07-29T00:06:39;6.47;;;5.90;;
32292;SDS011;43233;48.608;8.838;2022-07-29T00:09:05;18.40;;;8.53;;
32292;SDS011;43233;48.608;8.838;2022-07-29T00:11:31;9.10;;;6.67;;
32292;SDS011;43233;48.608;8.838;2022-07-29T00:13:57;8.10;;;5.23;;
32292;SDS011;43233;48.608;8.838;2022-07-29T00:16:23;8.57;;;6.47;;
32292;SDS011;43233;48.608;8.838;2022-07-29T00:18:48;5.50;;;5.10;;
32292;SDS011;43233;48.608;8.838;2022-07-29T00:21:14;6.50;;;5.90;;
32292;SDS011;43233;48.608;8.838;2022-07-29T00:23:40;8.27;;;5.90;;
32292;SDS011;43233;48.608;8.838;2022-07-29T00:26:05;7.60;;;5.90;;
32292;SDS011;43233;48.608;8.838;2022-07-29T00:28:31;6.97;;;5.43;;
32292;SDS011;43233;48.608;8.838;2022-07-29T00:30:56;6.87;;;5.40;;
32292;SDS011;43233;48.608;8.838;2022-07-29T00:33:22;5.73;;;5.23;;
32292;SDS011;43233;48.608;8.838;2022-07-29T00:35:48;6.50;;;5.03;;
32292;SDS011;43233;48.608;8.838;2022-07-29T00:38:14;8.43;;;6.60;;
32292;SDS011;43233;48.608;8.838;2022-07-29T00:40:41;10.20;;;6.93;;
32292;SDS011;43233;48.608;8.838;2022-07-29T00:43:08;10.23;;;6.90;;
32292;SDS011;43233;48.608;8.838;2022-07-29T00:45:34;9.03;;;6.30;;
32292;SDS011;43233;48.608;8.838;2022-07-29T00:48:00;6.80;;;6.20;;
32292;SDS011;43233;48.608;8.838;2022-07-29T00:50:26;6.50;;;5.40;;
32292;SDS011;43233;48.608;8.838;2022-07-29T00:52:52;8.90;;;6.40;;
32292;SDS011;43233;48.608;8.838;2022-07-29T00:55:18;6.80;;;6.10;;
32292;SDS011;43233;48.608;8.838;2022-07-29T00:57:44;7.60;;;6.00;;
32292;SDS011;43233;48.608;8.838;2022-07-29T01:00:11;8.27;;;6.00;;
32292;SDS011;43233;48.608;8.838;2022-07-29T01:02:39;5.27;;;4.77;;
32292;SDS011;43233;48.608;8.838;2022-07-29T01:05:05;10.73;;;7.30;;
32292;SDS011;43233;48.608;8.838;2022-07-29T01:07:31;9.80;;;5.37;;
32292;SDS011;43233;48.608;8.838;2022-07-29T01:10:02;8.60;;;6.60;;
32292;SDS011;43233;48.608;8.838;2022-07-29T01:12:29;7.53;;;6.83;;
32292;SDS011;43233;48.608;8.838;2022-07-29T01:14:59;8.33;;;6.93;;
32292;SDS011;43233;48.608;8.838;2022-07-29T01:17:27;9.83;;;7.10;;
32292;SDS011;43233;48.608;8.838;2022-07-29T01:22:35;6.90;;;6.30;;
32292;SDS011;43233;48.608;8.838;2022-07-29T01:30:37;5.53;;;5.10;;
32292;SDS011;43233;48.608;8.838;2022-07-29T01:33:09;9.13;;;6.27;;
32292;SDS011;43233;48.608;8.838;2022-07-29T01:35:57;6.50;;;5.90;;
32292;SDS011;43233;48.608;8.838;2022-07-29T01:38:26;6.70;;;5.83;;
32292;SDS011;43233;48.608;8.838;2022-07-29T01:40:54;5.77;;;5.30;;
32292;SDS011;43233;48.608;8.838;2022-07-29T01:43:36;6.00;;;5.23;;
32292;SDS011;43233;48.608;8.838;2022-07-29T01:46:09;5.77;;;5.27;;
32292;SDS011;43233;48.608;8.838;2022-07-29T01:48:46;5.50;;;5.00;;
32292;SDS011;43233;48.608;8.838;2022-07-29T01:51:24;5.60;;;5.00;;
32292;SDS011;43233;48.608;8.838;2022-07-29T01:54:39;5.10;;;4.67;;
32292;SDS011;43233;48.608;8.838;2022-07-29T01:56:49;7.67;;;5.17;;
32292;SDS011;43233;48.608;8.838;2022-07-29T01:59:18;5.23;;;4.73;;
32292;SDS011;43233;48.608;8.838;2022-07-29T02:01:45;5.10;;;4.57;;
32292;SDS011;43233;48.608;8.838;2022-07-29T02:04:13;5.50;;;4.60;;
32292;SDS011;43233;48.608;8.838;2022-07-29T02:06:42;4.03;;;3.73;;
32292;SDS011;43233;48.608;8.838;2022-07-29T02:09:09;3.17;;;2.87;;
32292;SDS011;43233;48.608;8.838;2022-07-29T02:11:37;12.90;;;4.20;;
32292;SDS011;43233;48.608;8.838;2022-07-29T02:14:04;2.80;;;2.70;;
32292;SDS011;43233;48.608;8.838;2022-07-29T02:16:32;3.33;;;2.70;;
32292;SDS011;43233;48.608;8.838;2022-07-29T02:19:01;3.73;;;2.37;;
32292;SDS011;43233;48.608;8.838;2022-07-29T02:21:28;2.47;;;2.20;;
32292;SDS011;43233;48.608;8.838;2022-07-29T02:23:55;3.60;;;3.30;;
32292;SDS011;43233;48.608;8.838;2022-07-29T02:26:25;6.23;;;2.30;;
32292;SDS011;43233;48.608;8.838;2022-07-29T02:28:54;2.67;;;2.50;;
32292;SDS011;43233;48.608;8.838;2022-07-29T02:31:21;2.30;;;2.20;;
32292;SDS011;43233;48.608;8.838;2022-07-29T02:33:50;2.73;;;2.53;;
32292;SDS011;43233;48.608;8.838;2022-07-29T02:36:17;3.00;;;2.43;;
32292;SDS011;43233;48.608;8.838;2022-07-29T02:38:46;3.23;;;3.03;;
32292;SDS011;43233;48.608;8.838;2022-07-29T02:41:57;5.60;;;3.17;;
32292;SDS011;43233;48.608;8.838;2022-07-29T02:44:16;2.90;;;2.70;;
32292;SDS011;43233;48.608;8.838;2022-07-29T02:46:57;2.80;;;2.60;;
32292;SDS011;43233;48.608;8.838;2022-07-29T02:57:06;2.60;;;2.40;;
32292;SDS011;43233;48.608;8.838;2022-07-29T02:59:39;2.87;;;2.67;;
32292;SDS011;43233;48.608;8.838;2022-07-29T03:02:08;2.70;;;2.50;;
32292;SDS011;43233;48.608;8.838;2022-07-29T03:04:35;2.27;;;2.17;;
32292;SDS011;43233;48.608;8.838;2022-07-29T03:07:04;2.67;;;2.47;;
32292;SDS011;43233;48.608;8.838;2022-07-29T03:09:30;2.37;;;2.20;;
32292;SDS011;43233;48.608;8.838;2022-07-29T03:11:57;3.07;;;2.87;;
32292;SDS011;43233;48.608;8.838;2022-07-29T03:14:23;2.30;;;2.10;;
32292;SDS011;43233;48.608;8.838;2022-07-29T03:16:50;2.20;;;2.00;;
32292;SDS011;43233;48.608;8.838;2022-07-29T03:19:17;2.97;;;2.57;;
32292;SDS011;43233;48.608;8.838;2022-07-29T03:21:43;2.70;;;2.50;;
32292;SDS011;43233;48.608;8.838;2022-07-29T03:24:28;3.50;;;3.00;;
32292;SDS011;43233;48.608;8.838;2022-07-29T03:26:57;2.60;;;2.40;;
32292;SDS011;43233;48.608;8.838;2022-07-29T03:29:23;3.27;;;2.17;;
32292;SDS011;43233;48.608;8.838;2022-07-29T03:31:50;2.60;;;2.47;;
32292;SDS011;43233;48.608;8.838;2022-07-29T03:34:16;2.97;;;2.77;;
32292;SDS011;43233;48.608;8.838;2022-07-29T03:36:41;2.80;;;2.60;;
32292;SDS011;43233;48.608;8.838;2022-07-29T03:39:07;2.93;;;2.73;;
32292;SDS011;43233;48.608;8.838;2022-07-29T03:41:35;3.90;;;2.90;;
32292;SDS011;43233;48.608;8.838;2022-07-29T03:44:04;3.60;;;2.47;;
32292;SDS011;43233;48.608;8.838;2022-07-29T03:46:32;3.77;;;3.47;;
32292;SDS011;43233;48.608;8.838;2022-07-29T03:49:00;3.30;;;3.10;;
32292;SDS011;43233;48.608;8.838;2022-07-29T03:51:28;3.93;;;3.63;;
32292;SDS011;43233;48.608;8.838;2022-07-29T03:53:54;3.07;;;2.77;;
32292;SDS011;43233;48.608;8.838;2022-07-29T03:56:22;2.83;;;2.63;;
32292;SDS011;43233;48.608;8.838;2022-07-29T03:58:49;4.70;;;3.20;;
32292;SDS011;43233;48.608;8.838;2022-07-29T04:01:17;3.60;;;3.30;;
32292;SDS011;43233;48.608;8.838;2022-07-29T04:03:43;3.60;;;3.40;;
32292;SDS011;43233;48.608;8.838;2022-07-29T04:06:11;3.53;;;3.23;;
32292;SDS011;43233;48.608;8.838;2022-07-29T04:08:37;3.87;;;3.37;;
32292;SDS011;43233;48.608;8.838;2022-07-29T04:11:03;4.03;;;3.70;;
32292;SDS011;43233;48.608;8.838;2022-07-29T04:13:30;3.33;;;3.03;;
32292;SDS011;43233;48.608;8.838;2022-07-29T04:15:56;3.60;;;3.30;;
32292;SDS011;43233;48.608;8.838;2022-07-29T04:18:23;3.83;;;3.50;;
32292;SDS011;43233;48.608;8.838;2022-07-29T04:20:49;4.00;;;3.60;;
32292;SDS011;43233;48.608;8.838;2022-07-29T04:23:15;4.03;;;3.70;;
32292;SDS011;43233;48.608;8.838;2022-07-29T04:25:41;5.67;;;3.40;;
32292;SDS011;43233;48.608;8.838;2022-07-29T04:28:07;5.00;;;4.27;;
32292;SDS011;43233;48.608;8.838;2022-07-29T04:30:34;4.00;;;3.50;;
32292;SDS011;43233;48.608;8.838;2022-07-29T04:33:01;3.60;;;3.30;;
32292;SDS011;43233;48.608;8.838;2022-07-29T04:35:28;4.40;;;4.07;;
32292;SDS011;43233;48.608;8.838;2022-07-29T04:37:55;6.30;;;5.80;;
32292;SDS011;43233;48.608;8.838;2022-07-29T04:40:21;4.73;;;4.43;;
32292;SDS011;43233;48.608;8.838;2022-07-29T04:42:47;5.10;;;4.70;;
32292;SDS011;43233;48.608;8.838;2022-07-29T04:45:12;6.40;;;4.63;;
32292;SDS011;43233;48.608;8.838;2022-07-29T04:47:39;5.60;;;5.20;;
32292;SDS011;43233;48.608;8.838;2022-07-29T04:50:04;6.20;;;5.27;;
32292;SDS011;43233;48.608;8.838;2022-07-29T04:52:31;9.80;;;5.60;;
32292;SDS011;43233;48.608;8.838;2022-07-29T04:54:57;5.93;;;5.43;;
32292;SDS011;43233;48.608;8.838;2022-07-29T04:57:23;4.90;;;4.57;;
32292;SDS011;43233;48.608;8.838;2022-07-29T04:59:48;7.37;;;5.90;;
32292;SDS011;43233;48.608;8.838;2022-07-29T05:02:14;5.00;;;4.60;;
32292;SDS011;43233;48.608;8.838;2022-07-29T05:04:40;5.57;;;5.07;;
32292;SDS011;43233;48.608;8.838;2022-07-29T05:07:06;6.43;;;5.80;;
32292;SDS011;43233;48.608;8.838;2022-07-29T05:09:31;6.43;;;5.73;;
32292;SDS011;43233;48.608;8.838;2022-07-29T05:11:57;7.27;;;6.30;;
32292;SDS011;43233;48.608;8.838;2022-07-29T05:14:23;9.80;;;5.87;;
32292;SDS011;43233;48.608;8.838;2022-07-29T05:16:48;6.73;;;6.10;;
32292;SDS011;43233;48.608;8.838;2022-07-29T05:19:16;6.13;;;5.57;;
32292;SDS011;43233;48.608;8.838;2022-07-29T05:21:42;6.07;;;5.03;;
32292;SDS011;43233;48.608;8.838;2022-07-29T05:24:09;6.30;;;5.70;;
32292;SDS011;43233;48.608;8.838;2022-07-29T05:26:34;7.40;;;6.60;;
32292;SDS011;43233;48.608;8.838;2022-07-29T05:29:00;9.07;;;5.67;;
32292;SDS011;43233;48.608;8.838;2022-07-29T05:31:26;7.60;;;5.87;;
32292;SDS011;43233;48.608;8.838;2022-07-29T05:33:51;6.03;;;5.43;;
32292;SDS011;43233;48.608;8.838;2022-07-29T05:36:17;7.57;;;6.00;;
32292;SDS011;43233;48.608;8.838;2022-07-29T05:38:43;9.70;;;6.20;;
32292;SDS011;43233;48.608;8.838;2022-07-29T05:41:08;5.00;;;4.60;;
32292;SDS011;43233;48.608;8.838;2022-07-29T05:43:34;9.10;;;6.03;;
32292;SDS011;43233;48.608;8.838;2022-07-29T05:45:59;7.00;;;6.37;;
32292;SDS011;43233;48.608;8.838;2022-07-29T05:48:25;7.50;;;6.00;;
32292;SDS011;43233;48.608;8.838;2022-07-29T05:50:51;5.40;;;5.00;;
32292;SDS011;43233;48.608;8.838;2022-07-29T05:53:16;6.33;;;5.70;;
32292;SDS011;43233;48.608;8.838;2022-07-29T05:55:42;8.67;;;6.83;;
32292;SDS011;43233;48.608;8.838;2022-07-29T05:58:08;5.97;;;5.47;;
32292;SDS011;43233;48.608;8.838;2022-07-29T06:00:33;11.33;;;7.53;;
32292;SDS011;43233;48.608;8.838;2022-07-29T06:02:59;10.10;;;6.70;;
32292;SDS011;43233;48.608;8.838;2022-07-29T06:05:25;6.33;;;5.80;;
32292;SDS011;43233;48.608;8.838;2022-07-29T06:07:50;8.70;;;7.20;;
32292;SDS011;43233;48.608;8.838;2022-07-29T06:10:16;8.37;;;6.07;;
32292;SDS011;43233;48.608;8.838;2022-07-29T06:12:42;6.83;;;6.23;;
32292;SDS011;43233;48.608;8.838;2022-07-29T06:15:08;9.13;;;7.07;;
32292;SDS011;43233;48.608;8.838;2022-07-29T06:17:34;14.83;;;8.07;;
32292;SDS011;43233;48.608;8.838;2022-07-29T06:19:59;6.93;;;6.27;;
32292;SDS011;43233;48.608;8.838;2022-07-29T06:22:25;7.93;;;6.53;;
32292;SDS011;43233;48.608;8.838;2022-07-29T06:24:51;11.17;;;6.57;;
32292;SDS011;43233;48.608;8.838;2022-07-29T06:27:16;11.43;;;6.53;;
32292;SDS011;43233;48.608;8.838;2022-07-29T06:29:42;7.50;;;6.80;;
32292;SDS011;43233;48.608;8.838;2022-07-29T06:32:08;12.60;;;6.43;;
32292;SDS011;43233;48.608;8.838;2022-07-29T06:34:34;9.20;;;7.57;;
32292;SDS011;43233;48.608;8.838;2022-07-29T06:37:00;11.67;;;6.77;;
32292;SDS011;43233;48.608;8.838;2022-07-29T06:39:31;6.83;;;6.23;;
32292;SDS011;43233;48.608;8.838;2022-07-29T06:41:58;7.20;;;6.50;;
32292;SDS011;43233;48.608;8.838;2022-07-29T06:44:24;8.07;;;7.37;;
32292;SDS011;43233;48.608;8.838;2022-07-29T06:46:50;8.13;;;6.93;;
32292;SDS011;43233;48.608;8.838;2022-07-29T06:49:16;9.10;;;6.70;;
32292;SDS011;43233;48.608;8.838;2022-07-29T06:51:42;8.83;;;6.07;;
32292;SDS011;43233;48.608;8.838;2022-07-29T06:54:08;6.40;;;5.80;;
32292;SDS011;43233;48.608;8.838;2022-07-29T06:56:34;7.07;;;6.37;;
32292;SDS011;43233;48.608;8.838;2022-07-29T06:59:02;11.70;;;7.00;;
32292;SDS011;43233;48.608;8.838;2022-07-29T07:01:28;7.67;;;6.97;;
32292;SDS011;43233;48.608;8.838;2022-07-29T07:03:53;7.03;;;6.33;;
32292;SDS011;43233;48.608;8.838;2022-07-29T07:06:19;7.50;;;5.40;;
32292;SDS011;43233;48.608;8.838;2022-07-29T07:08:45;5.70;;;5.20;;
32292;SDS011;43233;48.608;8.838;2022-07-29T07:11:10;7.90;;;7.20;;
32292;SDS011;43233;48.608;8.838;2022-07-29T07:13:36;12.43;;;7.90;;
32292;SDS011;43233;48.608;8.838;2022-07-29T07:16:02;9.17;;;8.37;;
32292;SDS011;43233;48.608;8.838;2022-07-29T07:18:28;8.03;;;6.80;;
32292;SDS011;43233;48.608;8.838;2022-07-29T07:20:54;10.20;;;8.17;;
32292;SDS011;43233;48.608;8.838;2022-07-29T07:23:20;7.27;;;6.57;;
32292;SDS011;43233;48.608;8.838;2022-07-29T07:25:46;8.60;;;7.70;;
32292;SDS011;43233;48.608;8.838;2022-07-29T07:28:12;6.77;;;6.23;;
32292;SDS011;43233;48.608;8.838;2022-07-29T07:30:37;8.27;;;7.47;;
32292;SDS011;43233;48.608;8.838;2022-07-29T07:33:04;7.57;;;6.40;;
32292;SDS011;43233;48.608;8.838;2022-07-29T07:35:29;12.63;;;8.10;;
32292;SDS011;43233;48.608;8.838;2022-07-29T07:37:55;7.87;;;6.90;;
32292;SDS011;43233;48.608;8.838;2022-07-29T07:40:21;14.40;;;7.43;;
32292;SDS011;43233;48.608;8.838;2022-07-29T07:42:47;7.20;;;6.50;;
32292;SDS011;43233;48.608;8.838;2022-07-29T07:45:12;7.73;;;6.70;;
32292;SDS011;43233;48.608;8.838;2022-07-29T07:47:38;7.40;;;6.70;;
32292;SDS011;43233;48.608;8.838;2022-07-29T07:50:05;11.97;;;8.50;;
32292;SDS011;43233;48.608;8.838;2022-07-29T07:52:32;6.67;;;6.07;;
32292;SDS011;43233;48.608;8.838;2022-07-29T07:54:58;9.73;;;6.47;;
32292;SDS011;43233;48.608;8.838;2022-07-29T07:57:24;7.10;;;5.63;;
32292;SDS011;43233;48.608;8.838;2022-07-29T07:59:50;9.53;;;7.60;;
32292;SDS011;43233;48.608;8.838;2022-07-29T08:02:15;10.00;;;7.03;;
32292;SDS011;43233;48.608;8.838;2022-07-29T08:04:41;9.17;;;6.53;;
32292;SDS011;43233;48.608;8.838;2022-07-29T08:07:07;9.60;;;5.73;;
32292;SDS011;43233;48.608;8.838;2022-07-29T08:09:34;6.70;;;5.63;;
32292;SDS011;43233;48.608;8.838;2022-07-29T08:12:00;10.60;;;5.60;;
32292;SDS011;43233;48.608;8.838;2022-07-29T08:14:30;6.90;;;5.70;;
32292;SDS011;43233;48.608;8.838;2022-07-29T08:16:56;7.90;;;6.30;;
32292;SDS011;43233;48.608;8.838;2022-07-29T08:19:22;5.13;;;4.63;;
32292;SDS011;43233;48.608;8.838;2022-07-29T08:21:48;8.37;;;4.77;;
32292;SDS011;43233;48.608;8.838;2022-07-29T08:24:14;11.37;;;7.43;;
32292;SDS011;43233;48.608;8.838;2022-07-29T08:26:58;6.70;;;5.57;;
32292;SDS011;43233;48.608;8.838;2022-07-29T08:29:24;5.27;;;4.63;;
32292;SDS011;43233;48.608;8.838;2022-07-29T08:31:50;8.20;;;5.20;;
32292;SDS011;43233;48.608;8.838;2022-07-29T08:34:15;15.83;;;5.83;;
32292;SDS011;43233;48.608;8.838;2022-07-29T08:36:41;7.97;;;7.27;;
32292;SDS011;43233;48.608;8.838;2022-07-29T08:39:07;8.63;;;5.57;;
32292;SDS011;43233;48.608;8.838;2022-07-29T08:41:32;4.30;;;3.90;;
32292;SDS011;43233;48.608;8.838;2022-07-29T08:43:58;6.10;;;5.27;;
32292;SDS011;43233;48.608;8.838;2022-07-29T08:46:24;6.43;;;5.73;;
32292;SDS011;43233;48.608;8.838;2022-07-29T08:48:50;5.70;;;4.63;;
32292;SDS011;43233;48.608;8.838;2022-07-29T08:51:19;6.30;;;4.67;;
32292;SDS011;43233;48.608;8.838;2022-07-29T08:53:46;4.50;;;4.10;;
32292;SDS011;43233;48.608;8.838;2022-07-29T08:56:16;6.63;;;6.00;;
32292;SDS011;43233;48.608;8.838;2022-07-29T08:58:44;6.20;;;4.40;;
32292;SDS011;43233;48.608;8.838;2022-07-29T09:01:12;7.07;;;6.23;;
32292;SDS011;43233;48.608;8.838;2022-07-29T09:03:43;6.40;;;5.73;;
32292;SDS011;43233;48.608;8.838;2022-07-29T09:06:12;5.53;;;5.03;;
32292;SDS011;43233;48.608;8.838;2022-07-29T09:08:39;4.87;;;4.43;;
32292;SDS011;43233;48.608;8.838;2022-07-29T09:11:05;6.20;;;5.37;;
32292;SDS011;43233;48.608;8.838;2022-07-29T09:13:32;6.67;;;5.07;;
32292;SDS011;43233;48.608;8.838;2022-07-29T09:15:58;10.70;;;6.40;;
32292;SDS011;43233;48.608;8.838;2022-07-29T09:18:32;5.73;;;5.23;;
32292;SDS011;43233;48.608;8.838;2022-07-29T09:20:59;7.00;;;6.17;;
32292;SDS011;43233;48.608;8.838;2022-07-29T09:26:32;5.10;;;4.70;;
32292;SDS011;43233;48.608;8.838;2022-07-29T09:28:59;4.93;;;4.40;;
32292;SDS011;43233;48.608;8.838;2022-07-29T09:31:33;8.50;;;4.90;;
32292;SDS011;43233;48.608;8.838;2022-07-29T09:34:00;4.57;;;4.17;;
32292;SDS011;43233;48.608;8.838;2022-07-29T09:36:26;5.50;;;5.00;;
32292;SDS011;43233;48.608;8.838;2022-07-29T09:38:58;5.13;;;4.10;;
32292;SDS011;43233;48.608;8.838;2022-07-29T09:41:25;6.40;;;5.50;;
32292;SDS011;43233;48.608;8.838;2022-07-29T09:43:55;9.57;;;5.10;;
32292;SDS011;43233;48.608;8.838;2022-07-29T09:46:21;4.97;;;4.43;;
32292;SDS011;43233;48.608;8.838;2022-07-29T09:51:43;6.20;;;4.70;;
32292;SDS011;43233;48.608;8.838;2022-07-29T09:54:22;6.87;;;4.70;;
32292;SDS011;43233;48.608;8.838;2022-07-29T09:56:51;6.77;;;4.63;;
32292;SDS011;43233;48.608;8.838;2022-07-29T09:59:18;6.37;;;4.37;;
32292;SDS011;43233;48.608;8.838;2022-07-29T10:01:45;6.00;;;4.30;;
32292;SDS011;43233;48.608;8.838;2022-07-29T10:04:11;4.60;;;4.13;;
32292;SDS011;43233;48.608;8.838;2022-07-29T10:06:54;4.87;;;4.40;;
32292;SDS011;43233;48.608;8.838;2022-07-29T10:09:22;4.70;;;4.30;;
32292;SDS011;43233;48.608;8.838;2022-07-29T10:12:04;3.80;;;3.50;;
32292;SDS011;43233;48.608;8.838;2022-07-29T10:14:31;4.73;;;4.00;;
32292;SDS011;43233;48.608;8.838;2022-07-29T10:17:00;3.70;;;3.33;;
32292;SDS011;43233;48.608;8.838;2022-07-29T10:19:30;4.60;;;4.07;;
32292;SDS011;43233;48.608;8.838;2022-07-29T10:22:00;6.10;;;3.40;;
32292;SDS011;43233;48.608;8.838;2022-07-29T10:24:28;4.17;;;3.87;;
32292;SDS011;43233;48.608;8.838;2022-07-29T10:26:59;7.33;;;3.13;;
32292;SDS011;43233;48.608;8.838;2022-07-29T10:29:26;11.90;;;2.30;;
32292;SDS011;43233;48.608;8.838;2022-07-29T10:37:46;3.53;;;2.23;;
32292;SDS011;43233;48.608;8.838;2022-07-29T10:40:45;3.60;;;3.30;;
32292;SDS011;43233;48.608;8.838;2022-07-29T10:43:49;3.00;;;2.80;;
32292;SDS011;43233;48.608;8.838;2022-07-29T10:46:16;4.60;;;3.33;;
32292;SDS011;43233;48.608;8.838;2022-07-29T10:54:19;2.30;;;2.10;;
32292;SDS011;43233;48.608;8.838;2022-07-29T10:59:38;2.40;;;2.20;;
32292;SDS011;43233;48.608;8.838;2022-07-29T11:04:59;4.10;;;2.33;;
32292;SDS011;43233;48.608;8.838;2022-07-29T11:07:26;2.60;;;2.30;;
32292;SDS011;43233;48.608;8.838;2022-07-29T11:12:49;4.10;;;3.30;;
32292;SDS011;43233;48.608;8.838;2022-07-29T11:15:17;5.93;;;3.87;;
32292;SDS011;43233;48.608;8.838;2022-07-29T11:31:19;3.27;;;3.00;;
32292;SDS011;43233;48.608;8.838;2022-07-29T11:34:05;2.50;;;2.30;;
32292;SDS011;43233;48.608;8.838;2022-07-29T11:39:34;6.33;;;2.80;;
32292;SDS011;43233;48.608;8.838;2022-07-29T11:45:04;2.30;;;2.20;;
32292;SDS011;43233;48.608;8.838;2022-07-29T11:47:47;2.13;;;1.93;;
32292;SDS011;43233;48.608;8.838;2022-07-29T11:50:14;5.60;;;3.07;;
32292;SDS011;43233;48.608;8.838;2022-07-29T11:52:43;5.10;;;2.53;;
32292;SDS011;43233;48.608;8.838;2022-07-29T11:55:17;3.33;;;3.03;;
32292;SDS011;43233;48.608;8.838;2022-07-29T11:57:48;3.97;;;2.67;;
32292;SDS011;43233;48.608;8.838;2022-07-29T12:02:59;3.73;;;2.43;;
32292;SDS011;43233;48.608;8.838;2022-07-29T12:05:39;5.07;;;2.90;;
32292;SDS011;43233;48.608;8.838;2022-07-29T12:08:07;2.53;;;2.33;;
32292;SDS011;43233;48.608;8.838;2022-07-29T12:10:37;1.93;;;1.83;;
32292;SDS011;43233;48.608;8.838;2022-07-29T12:13:03;1.90;;;1.60;;
32292;SDS011;43233;48.608;8.838;2022-07-29T12:15:29;1.70;;;1.60;;
32292;SDS011;43233;48.608;8.838;2022-07-29T12:17:55;2.53;;;2.20;;
32292;SDS011;43233;48.608;8.838;2022-07-29T12:20:25;2.27;;;2.00;;
32292;SDS011;43233;48.608;8.838;2022-07-29T12:22:55;1.97;;;1.87;;
32292;SDS011;43233;48.608;8.838;2022-07-29T12:25:22;2.20;;;2.10;;
32292;SDS011;43233;48.608;8.838;2022-07-29T12:27:58;2.80;;;2.23;;
32292;SDS011;43233;48.608;8.838;2022-07-29T12:30:33;8.27;;;2.60;;
32292;SDS011;43233;48.608;8.838;2022-07-29T12:33:10;7.47;;;4.10;;
32292;SDS011;43233;48.608;8.838;2022-07-29T12:35:37;13.10;;;4.20;;
32292;SDS011;43233;48.608;8.838;2022-07-29T12:38:03;7.53;;;3.63;;
32292;SDS011;43233;48.608;8.838;2022-07-29T12:40:29;12.20;;;4.47;;
32292;SDS011;43233;48.608;8.838;2022-07-29T12:43:06;9.93;;;5.50;;
32292;SDS011;43233;48.608;8.838;2022-07-29T12:45:36;7.17;;;3.30;;
32292;SDS011;43233;48.608;8.838;2022-07-29T12:48:06;7.30;;;4.07;;
32292;SDS011;43233;48.608;8.838;2022-07-29T12:50:36;3.73;;;3.30;;
32292;SDS011;43233;48.608;8.838;2022-07-29T12:53:17;5.73;;;3.90;;
32292;SDS011;43233;48.608;8.838;2022-07-29T12:55:44;6.00;;;4.10;;
32292;SDS011;43233;48.608;8.838;2022-07-29T12:58:25;4.40;;;4.00;;
32292;SDS011;43233;48.608;8.838;2022-07-29T13:01:06;7.07;;;4.60;;
32292;SDS011;43233;48.608;8.838;2022-07-29T13:03:46;8.87;;;4.83;;
32292;SDS011;43233;48.608;8.838;2022-07-29T13:09:04;11.07;;;5.20;;
32292;SDS011;43233;48.608;8.838;2022-07-29T13:11:34;5.93;;;5.07;;
32292;SDS011;43233;48.608;8.838;2022-07-29T13:14:03;5.20;;;4.40;;
32292;SDS011;43233;48.608;8.838;2022-07-29T13:16:29;8.60;;;4.63;;
32292;SDS011;43233;48.608;8.838;2022-07-29T13:21:34;5.33;;;4.33;;
32292;SDS011;43233;48.608;8.838;2022-07-29T13:24:01;5.30;;;3.70;;
32292;SDS011;43233;48.608;8.838;2022-07-29T13:26:27;8.77;;;4.20;;
32292;SDS011;43233;48.608;8.838;2022-07-29T13:28:52;4.63;;;4.17;;
32292;SDS011;43233;48.608;8.838;2022-07-29T13:31:19;9.53;;;4.37;;
32292;SDS011;43233;48.608;8.838;2022-07-29T13:33:45;4.30;;;4.00;;
32292;SDS011;43233;48.608;8.838;2022-07-29T13:36:10;4.67;;;4.20;;
32292;SDS011;43233;48.608;8.838;2022-07-29T13:38:36;6.30;;;4.30;;
32292;SDS011;43233;48.608;8.838;2022-07-29T13:41:02;4.63;;;3.70;;
32292;SDS011;43233;48.608;8.838;2022-07-29T13:43:27;4.20;;;3.80;;
32292;SDS011;43233;48.608;8.838;2022-07-29T13:45:53;6.30;;;4.00;;
32292;SDS011;43233;48.608;8.838;2022-07-29T13:48:18;5.23;;;4.23;;
32292;SDS011;43233;48.608;8.838;2022-07-29T13:50:44;5.30;;;4.00;;
32292;SDS011;43233;48.608;8.838;2022-07-29T13:53:10;4.87;;;4.30;;
32292;SDS011;43233;48.608;8.838;2022-07-29T13:55:36;5.63;;;3.87;;
32292;SDS011;43233;48.608;8.838;2022-07-29T13:58:02;5.43;;;4.93;;
32292;SDS011;43233;48.608;8.838;2022-07-29T14:00:28;5.70;;;3.97;;
32292;SDS011;43233;48.608;8.838;2022-07-29T14:02:54;4.07;;;3.63;;
32292;SDS011;43233;48.608;8.838;2022-07-29T14:05:19;4.60;;;4.20;;
32292;SDS011;43233;48.608;8.838;2022-07-29T14:07:45;4.97;;;4.20;;
32292;SDS011;43233;48.608;8.838;2022-07-29T14:10:11;4.70;;;4.20;;
32292;SDS011;43233;48.608;8.838;2022-07-29T14:12:36;4.33;;;3.80;;
32292;SDS011;43233;48.608;8.838;2022-07-29T14:15:03;7.77;;;4.20;;
32292;SDS011;43233;48.608;8.838;2022-07-29T14:17:29;6.20;;;4.20;;
32292;SDS011;43233;48.608;8.838;2022-07-29T14:19:54;4.93;;;3.10;;
32292;SDS011;43233;48.608;8.838;2022-07-29T14:22:20;5.20;;;4.57;;
32292;SDS011;43233;48.608;8.838;2022-07-29T14:24:45;4.33;;;3.90;;
32292;SDS011;43233;48.608;8.838;2022-07-29T14:27:11;4.07;;;3.77;;
32292;SDS011;43233;48.608;8.838;2022-07-29T14:29:37;5.07;;;3.50;;
32292;SDS011;43233;48.608;8.838;2022-07-29T14:32:03;5.73;;;3.70;;
32292;SDS011;43233;48.608;8.838;2022-07-29T14:34:33;4.53;;;4.10;;
32292;SDS011;43233;48.608;8.838;2022-07-29T14:36:59;4.30;;;3.90;;
32292;SDS011;43233;48.608;8.838;2022-07-29T14:39:24;3.60;;;3.40;;
32292;SDS011;43233;48.608;8.838;2022-07-29T14:41:50;3.93;;;3.47;;
32292;SDS011;43233;48.608;8.838;2022-07-29T14:44:16;5.20;;;3.73;;
32292;SDS011;43233;48.608;8.838;2022-07-29T14:46:42;4.60;;;4.20;;
32292;SDS011;43233;48.608;8.838;2022-07-29T14:49:08;5.10;;;4.00;;
32292;SDS011;43233;48.608;8.838;2022-07-29T14:51:34;7.60;;;3.73;;
32292;SDS011;43233;48.608;8.838;2022-07-29T14:53:59;4.00;;;3.80;;
32292;SDS011;43233;48.608;8.838;2022-07-29T14:56:25;5.10;;;4.10;;
32292;SDS011;43233;48.608;8.838;2022-07-29T14:58:51;7.27;;;5.03;;
32292;SDS011;43233;48.608;8.838;2022-07-29T15:01:17;4.70;;;4.20;;
32292;SDS011;43233;48.608;8.838;2022-07-29T15:03:43;5.43;;;3.90;;
32292;SDS011;43233;48.608;8.838;2022-07-29T15:06:08;3.57;;;3.37;;
32292;SDS011;43233;48.608;8.838;2022-07-29T15:08:34;4.33;;;4.03;;
32292;SDS011;43233;48.608;8.838;2022-07-29T15:11:00;4.87;;;4.30;;
32292;SDS011;43233;48.608;8.838;2022-07-29T15:13:25;8.83;;;4.47;;
32292;SDS011;43233;48.608;8.838;2022-07-29T15:15:51;4.67;;;3.80;;
32292;SDS011;43233;48.608;8.838;2022-07-29T15:18:17;6.77;;;4.60;;
32292;SDS011;43233;48.608;8.838;2022-07-29T15:20:43;6.27;;;5.67;;
32292;SDS011;43233;48.608;8.838;2022-07-29T15:23:11;6.00;;;4.27;;
32292;SDS011;43233;48.608;8.838;2022-07-29T15:25:37;5.63;;;5.13;;
32292;SDS011;43233;48.608;8.838;2022-07-29T15:28:03;9.50;;;5.67;;
32292;SDS011;43233;48.608;8.838;2022-07-29T15:30:32;5.77;;;5.07;;
32292;SDS011;43233;48.608;8.838;2022-07-29T15:32:58;9.40;;;4.50;;
32292;SDS011;43233;48.608;8.838;2022-07-29T15:35:24;4.60;;;4.13;;
32292;SDS011;43233;48.608;8.838;2022-07-29T15:37:50;4.70;;;4.23;;
32292;SDS011;43233;48.608;8.838;2022-07-29T15:40:16;7.67;;;5.87;;
32292;SDS011;43233;48.608;8.838;2022-07-29T15:42:41;4.13;;;3.73;;
32292;SDS011;43233;48.608;8.838;2022-07-29T15:45:07;5.20;;;3.93;;
32292;SDS011;43233;48.608;8.838;2022-07-29T15:47:34;10.40;;;4.57;;
32292;SDS011;43233;48.608;8.838;2022-07-29T15:50:00;4.07;;;3.73;;
32292;SDS011;43233;48.608;8.838;2022-07-29T15:52:26;7.80;;;4.40;;
32292;SDS011;43233;48.608;8.838;2022-07-29T15:54:52;5.73;;;4.87;;
32292;SDS011;43233;48.608;8.838;2022-07-29T15:57:19;7.60;;;4.80;;
32292;SDS011;43233;48.608;8.838;2022-07-29T15:59:45;5.33;;;4.20;;